createdAt,value
2023-01-17T00:02:21.310Z,97777.47
2023-01-17T00:05:07.354Z,97773.56
2023-01-17T00:07:53.327Z,97774.19
2023-01-17T00:10:27.880Z,97765.50
2023-01-17T00:12:59.375Z,97761.31
2023-01-17T00:15:30.710Z,97775.47
2023-01-17T00:17:58.480Z,97773.78
2023-01-17T00:20:49.324Z,97775.09
2023-01-17T00:23:45.740Z,97772.91
2023-01-17T00:26:18.792Z,97772.00
2023-01-17T00:28:47.730Z,97772.03
2023-01-17T00:31:17.859Z,97774.41
2023-01-17T00:33:45.451Z,97780.00
2023-01-17T00:36:13.410Z,97782.72
2023-01-17T00:38:41.090Z,97781.06
2023-01-17T00:41:14.613Z,97790.03
2023-01-17T00:44:00.638Z,97790.13
2023-01-17T00:46:46.710Z,97786.75
2023-01-17T00:49:32.786Z,97784.19
2023-01-17T00:52:19.356Z,97772.53
2023-01-17T00:55:05.229Z,97784.19
2023-01-17T00:57:51.096Z,97782.94
2023-01-17T01:00:37.625Z,97772.91
2023-01-17T01:03:30.959Z,97780.25
2023-01-17T01:06:17.474Z,97777.59
2023-01-17T01:09:03.555Z,97776.53
2023-01-17T01:11:49.581Z,97775.78
2023-01-17T01:14:35.607Z,97778.41
2023-01-17T01:17:21.571Z,97773.25
2023-01-17T01:20:07.677Z,97780.66
2023-01-17T01:22:53.649Z,97775.75
2023-01-17T01:25:39.541Z,97779.81
2023-01-17T01:28:32.391Z,97779.19
2023-01-17T01:31:23.246Z,97778.91
2023-01-17T01:33:54.020Z,97780.69
2023-01-17T01:36:21.481Z,97773.19
2023-01-17T01:38:50.156Z,97781.31
2023-01-17T01:41:17.355Z,97782.31
2023-01-17T01:43:53.060Z,97776.50
2023-01-17T01:46:27.082Z,97781.16
2023-01-17T01:49:17.626Z,97776.31
2023-01-17T01:51:56.297Z,97774.81
2023-01-17T01:54:58.056Z,97769.97
2023-01-17T01:57:34.795Z,97767.53
2023-01-17T02:00:35.744Z,97758.69
2023-01-17T02:03:23.539Z,97760.94
2023-01-17T02:05:51.778Z,97757.25
2023-01-17T02:08:23.223Z,97762.63
2023-01-17T02:10:51.243Z,97753.75
2023-01-17T02:13:20.862Z,97754.44
2023-01-17T02:16:39.224Z,97762.81
2023-01-17T02:19:37.396Z,97750.09
2023-01-17T02:23:19.611Z,97734.66
2023-01-17T02:26:34.451Z,97723.03
2023-01-17T02:30:05.421Z,97711.47
2023-01-17T02:33:17.399Z,97721.69
2023-01-17T02:36:12.627Z,97711.63
2023-01-17T02:39:09.514Z,97720.53
2023-01-17T02:41:53.837Z,97722.63
2023-01-17T02:44:21.825Z,97711.94
2023-01-17T02:46:58.106Z,97697.03
2023-01-17T02:49:31.620Z,97691.34
2023-01-17T02:52:34.303Z,97678.41
2023-01-17T02:55:19.113Z,97672.03
2023-01-17T02:58:39.767Z,97664.53
2023-01-17T03:01:21.765Z,97659.75
2023-01-17T03:04:12.987Z,97647.53
2023-01-17T03:06:59.056Z,97643.84
2023-01-17T03:09:28.046Z,97649.16
2023-01-17T03:11:55.916Z,97661.28
2023-01-17T03:14:23.037Z,97680.16
2023-01-17T03:16:50.495Z,97692.63
2023-01-17T03:19:17.626Z,97690.22
2023-01-17T03:21:44.748Z,97684.41
2023-01-17T03:24:11.935Z,97693.03
2023-01-17T03:26:39.152Z,97671.28
2023-01-17T03:29:06.335Z,97667.28
2023-01-17T03:31:33.528Z,97679.25
2023-01-17T03:34:00.690Z,97671.59
2023-01-17T03:36:28.031Z,97680.00
2023-01-17T03:38:55.161Z,97681.59
2023-01-17T03:41:22.341Z,97690.13
2023-01-17T03:43:49.536Z,97687.72
2023-01-17T03:46:34.858Z,97671.28
2023-01-17T03:49:02.083Z,97664.63
2023-01-17T03:51:29.263Z,97658.56
2023-01-17T03:53:56.391Z,97663.41
2023-01-17T03:56:23.558Z,97664.34
2023-01-17T03:58:51.494Z,97674.78
2023-01-17T04:01:19.042Z,97672.91
2023-01-17T04:03:46.303Z,97668.06
2023-01-17T04:06:13.570Z,97663.72
2023-01-17T04:08:41.558Z,97672.19
2023-01-17T04:11:08.817Z,97666.75
2023-01-17T04:13:35.954Z,97661.66
2023-01-17T04:16:04.352Z,97651.31
2023-01-17T04:18:31.566Z,97646.97
2023-01-17T04:20:58.734Z,97632.66
2023-01-17T04:23:26.079Z,97636.97
2023-01-17T04:25:53.209Z,97634.72
2023-01-17T04:28:20.424Z,97639.25
2023-01-17T04:30:48.587Z,97632.66
2023-01-17T04:33:15.744Z,97638.41
2023-01-17T04:35:42.886Z,97634.13
2023-01-17T04:38:10.053Z,97642.72
2023-01-17T04:40:37.213Z,97636.91
2023-01-17T04:43:04.320Z,97633.16
2023-01-17T04:45:31.524Z,97643.25
2023-01-17T04:48:05.517Z,97642.81
2023-01-17T04:50:33.960Z,97641.91
2023-01-17T04:53:01.648Z,97640.91
2023-01-17T04:55:28.786Z,97637.06
2023-01-17T04:57:56.121Z,97634.47
2023-01-17T05:00:24.306Z,97628.63
2023-01-17T05:02:52.084Z,97617.28
2023-01-17T05:05:19.315Z,97611.81
2023-01-17T05:07:57.211Z,97601.22
2023-01-17T05:10:25.543Z,97612.88
2023-01-17T05:12:58.943Z,97611.44
2023-01-17T05:15:27.093Z,97604.84
2023-01-17T05:17:55.078Z,97604.53
2023-01-17T05:20:25.451Z,97610.22
2023-01-17T05:22:57.462Z,97615.50
2023-01-17T05:25:28.540Z,97614.91
2023-01-17T05:27:56.495Z,97625.59
2023-01-17T05:30:24.390Z,97623.97
2023-01-17T05:32:57.984Z,97626.03
2023-01-17T05:35:34.791Z,97630.38
2023-01-17T05:38:02.302Z,97627.06
2023-01-17T05:40:32.920Z,97624.72
2023-01-17T05:43:03.248Z,97615.47
2023-01-17T05:45:33.255Z,97616.66
2023-01-17T05:48:01.472Z,97606.34
2023-01-17T05:50:38.433Z,97611.72
2023-01-17T05:53:13.164Z,97605.09
2023-01-17T05:55:41.582Z,97595.78
2023-01-17T05:58:19.123Z,97606.84
2023-01-17T06:00:47.580Z,97601.81
2023-01-17T06:03:16.900Z,97603.72
2023-01-17T06:05:44.911Z,97594.38
2023-01-17T06:08:12.204Z,97607.13
2023-01-17T06:10:40.585Z,97597.03
2023-01-17T06:13:12.617Z,97600.78
2023-01-17T06:15:40.337Z,97599.94
2023-01-17T06:18:14.711Z,97600.78
2023-01-17T06:20:42.789Z,97589.00
2023-01-17T06:23:15.009Z,97577.56
2023-01-17T06:25:46.710Z,97582.50
2023-01-17T06:28:20.276Z,97576.72
2023-01-17T06:30:48.265Z,97581.28
2023-01-17T06:33:16.472Z,97592.63
2023-01-17T06:35:52.435Z,97587.59
2023-01-17T06:38:20.542Z,97588.50
2023-01-17T06:40:48.506Z,97575.66
2023-01-17T06:43:15.916Z,97574.16
2023-01-17T06:45:43.116Z,97569.94
2023-01-17T06:48:10.405Z,97577.00
2023-01-17T06:50:38.050Z,97585.63
2023-01-17T06:53:07.148Z,97577.28
2023-01-17T06:55:36.989Z,97551.75
2023-01-17T06:58:04.300Z,97550.00
2023-01-17T07:00:35.018Z,97541.16
2023-01-17T07:03:02.597Z,97529.09
2023-01-17T07:05:29.903Z,97530.56
2023-01-17T07:07:58.076Z,97534.91
2023-01-17T07:10:25.264Z,97528.97
2023-01-17T07:12:58.111Z,97523.19
2023-01-17T07:15:25.351Z,97524.72
2023-01-17T07:17:52.525Z,97523.72
2023-01-17T07:20:19.688Z,97517.34
2023-01-17T07:22:46.920Z,97512.81
2023-01-17T07:25:14.224Z,97520.94
2023-01-17T07:27:41.367Z,97521.16
2023-01-17T07:30:10.379Z,97531.13
2023-01-17T07:32:37.677Z,97534.91
2023-01-17T07:35:06.464Z,97522.94
2023-01-17T07:37:33.590Z,97524.53
2023-01-17T07:40:02.477Z,97510.75
2023-01-17T07:42:32.225Z,97509.91
2023-01-17T07:45:00.758Z,97507.31
2023-01-17T07:47:27.920Z,97509.97
2023-01-17T07:49:55.176Z,97508.22
2023-01-17T07:52:22.417Z,97511.69
2023-01-17T07:54:49.797Z,97504.94
2023-01-17T07:57:16.942Z,97493.81
2023-01-17T07:59:44.479Z,97489.53
2023-01-17T08:02:19.793Z,97498.09
2023-01-17T08:04:48.069Z,97501.50
2023-01-17T08:07:15.944Z,97494.69
2023-01-17T08:09:44.702Z,97487.19
2023-01-17T08:12:11.883Z,97484.88
2023-01-17T08:14:39.108Z,97487.53
2023-01-17T08:17:11.133Z,97472.69
2023-01-17T08:19:38.454Z,97470.22
2023-01-17T08:22:05.757Z,97464.28
2023-01-17T08:24:32.888Z,97472.09
2023-01-17T08:27:00.368Z,97469.72
2023-01-17T08:29:27.579Z,97468.91
2023-01-17T08:31:55.239Z,97458.66
2023-01-17T08:34:23.462Z,97462.03
2023-01-17T08:36:53.937Z,97466.53
2023-01-17T08:39:21.979Z,97467.06
2023-01-17T08:41:49.167Z,97466.38
2023-01-17T08:44:16.380Z,97485.22
2023-01-17T08:46:44.213Z,97503.34
2023-01-17T08:49:12.594Z,97497.41
2023-01-17T08:51:40.355Z,97482.16
2023-01-17T08:54:09.700Z,97485.72
2023-01-17T08:56:36.937Z,97493.81
2023-01-17T08:59:04.278Z,97481.75
2023-01-17T09:01:40.542Z,97482.41
2023-01-17T09:04:09.782Z,97488.28
2023-01-17T09:06:45.319Z,97485.31
2023-01-17T09:09:13.653Z,97500.63
2023-01-17T09:11:41.047Z,97499.78
2023-01-17T09:14:08.659Z,97499.69
2023-01-17T09:16:35.903Z,97504.66
2023-01-17T09:19:03.234Z,97502.38
2023-01-17T09:21:30.741Z,97505.81
2023-01-17T09:23:57.915Z,97515.13
2023-01-17T09:26:29.337Z,97520.16
2023-01-17T09:28:58.541Z,97525.59
2023-01-17T09:31:27.119Z,97531.41
2023-01-17T09:33:56.882Z,97538.97
2023-01-17T09:36:28.773Z,97527.19
2023-01-17T09:38:58.623Z,97529.88
2023-01-17T09:41:43.956Z,97524.66
2023-01-17T09:44:42.293Z,97514.25
2023-01-17T09:47:24.692Z,97501.28
2023-01-17T09:49:56.967Z,97511.66
2023-01-17T09:52:25.122Z,97514.25
2023-01-17T09:54:53.338Z,97514.69
2023-01-17T09:58:17.827Z,97519.94
2023-01-17T10:01:18.606Z,97523.81
2023-01-17T10:04:20.398Z,97521.66
2023-01-17T10:07:33.562Z,97536.16
2023-01-17T10:10:31.494Z,97530.44
2023-01-17T10:13:12.504Z,97534.91
2023-01-17T10:16:08.915Z,97539.53
2023-01-17T10:19:16.466Z,97539.50
2023-01-17T10:22:36.659Z,97540.50
2023-01-17T10:25:28.259Z,97534.13
2023-01-17T10:28:14.733Z,97523.50
2023-01-17T10:30:58.400Z,97523.75
2023-01-17T10:33:36.221Z,97525.38
2023-01-17T10:36:20.484Z,97518.78
2023-01-17T10:39:02.684Z,97503.56
2023-01-17T10:41:38.467Z,97487.19
2023-01-17T10:44:58.339Z,97496.13
2023-01-17T10:47:29.197Z,97503.22
2023-01-17T10:50:01.804Z,97501.56
2023-01-17T10:52:53.331Z,97504.75
2023-01-17T10:55:48.943Z,97506.63
2023-01-17T10:58:16.220Z,97512.25
2023-01-17T11:00:48.476Z,97512.22
2023-01-17T11:03:20.834Z,97510.06
2023-01-17T11:06:21.394Z,97503.56
2023-01-17T11:09:05.232Z,97505.59
2023-01-17T11:11:35.647Z,97506.22
2023-01-17T11:14:25.752Z,97497.69
2023-01-17T11:17:06.342Z,97497.13
2023-01-17T11:19:38.544Z,97506.22
2023-01-17T11:22:07.419Z,97509.13
2023-01-17T11:24:48.562Z,97520.97
2023-01-17T11:27:35.488Z,97514.41
2023-01-17T11:30:20.455Z,97508.91
2023-01-17T11:33:08.499Z,97499.81
2023-01-17T11:35:44.286Z,97501.25
2023-01-17T11:38:24.567Z,97494.72
2023-01-17T11:41:15.990Z,97496.28
2023-01-17T11:43:55.612Z,97493.31
2023-01-17T11:46:23.989Z,97483.22
2023-01-17T11:49:01.041Z,97470.91
2023-01-17T11:51:40.213Z,97453.69
2023-01-17T11:54:27.651Z,97451.25
2023-01-17T11:57:02.451Z,97451.13
2023-01-17T11:59:43.214Z,97434.78
2023-01-17T12:03:27.489Z,97426.94
2023-01-17T12:06:04.075Z,97419.78
2023-01-17T12:08:58.744Z,97423.72
2023-01-17T12:12:41.659Z,97419.16
2023-01-17T12:15:54.873Z,97420.03
2023-01-17T12:18:42.915Z,97417.47
2023-01-17T12:21:51.493Z,97415.53
2023-01-17T12:24:55.937Z,97420.38
2023-01-17T12:28:10.080Z,97409.53
2023-01-17T12:31:29.583Z,97414.84
2023-01-17T12:34:26.330Z,97422.31
2023-01-17T12:37:08.247Z,97423.38
2023-01-17T12:39:46.056Z,97412.84
2023-01-17T12:42:22.836Z,97426.09
2023-01-17T12:45:20.181Z,97412.25
2023-01-17T12:47:57.519Z,97400.03
2023-01-17T12:50:37.217Z,97388.63
2023-01-17T12:53:37.974Z,97367.88
2023-01-17T12:56:16.362Z,97353.16
2023-01-17T12:58:51.473Z,97342.59
2023-01-17T13:01:35.386Z,97319.31
2023-01-17T13:04:46.917Z,97300.25
2023-01-17T13:07:55.481Z,97277.06
2023-01-17T13:10:32.108Z,97256.88
2023-01-17T13:13:15.587Z,97223.47
2023-01-17T13:15:44.168Z,97224.03
2023-01-17T13:18:22.801Z,97228.00
2023-01-17T13:21:31.771Z,97219.50
2023-01-17T13:24:05.985Z,97243.09
2023-01-17T13:26:56.579Z,97259.13
2023-01-17T13:29:41.614Z,97269.78
2023-01-17T13:33:04.660Z,97288.19
2023-01-17T13:35:43.558Z,97301.59
2023-01-17T13:39:05.478Z,97297.94
2023-01-17T13:41:46.241Z,97281.53
2023-01-17T13:44:21.457Z,97284.25
2023-01-17T13:47:18.733Z,97276.13
2023-01-17T13:49:56.221Z,97280.19
2023-01-17T13:52:26.147Z,97271.56
2023-01-17T13:55:04.358Z,97266.78
2023-01-17T13:57:42.015Z,97256.31
2023-01-17T14:00:49.227Z,97237.97
2023-01-17T14:03:53.915Z,97220.09
2023-01-17T14:06:36.258Z,97212.84
2023-01-17T14:09:44.908Z,97211.22
2023-01-17T14:12:11.907Z,97218.25
2023-01-17T14:14:41.987Z,97228.69
2023-01-17T14:17:25.796Z,97225.28
2023-01-17T14:20:09.331Z,97212.84
2023-01-17T14:22:50.547Z,97213.31
2023-01-17T14:25:41.457Z,97207.63
2023-01-17T14:28:22.343Z,97198.16
2023-01-17T14:30:55.873Z,97200.91
2023-01-17T14:33:39.827Z,97205.28
2023-01-17T14:36:27.962Z,97216.94
2023-01-17T14:38:55.143Z,97219.13
2023-01-17T14:41:28.409Z,97222.00
2023-01-17T14:43:56.043Z,97241.47
2023-01-17T14:46:32.330Z,97244.94
2023-01-17T14:49:24.192Z,97247.38
2023-01-17T14:52:06.370Z,97255.19
2023-01-17T14:54:33.723Z,97261.78
2023-01-17T14:57:29.421Z,97268.97
2023-01-17T15:00:19.802Z,97272.19
2023-01-17T15:02:49.101Z,97283.19
2023-01-17T15:05:23.497Z,97288.84
2023-01-17T15:07:55.105Z,97289.78
2023-01-17T15:10:34.476Z,97301.81
2023-01-17T15:13:09.541Z,97302.75
2023-01-17T15:15:40.007Z,97298.19
2023-01-17T15:18:26.620Z,97289.25
2023-01-17T15:21:29.952Z,97295.22
2023-01-17T15:24:08.153Z,97294.84
2023-01-17T15:26:45.968Z,97295.72
2023-01-17T15:29:31.109Z,97298.97
2023-01-17T15:32:03.491Z,97300.00
2023-01-17T15:34:47.060Z,97294.41
2023-01-17T15:37:36.430Z,97313.16
2023-01-17T15:40:21.527Z,97315.03
2023-01-17T15:43:00.984Z,97321.78
2023-01-17T15:45:33.852Z,97331.22
2023-01-17T15:48:37.134Z,97330.00
2023-01-17T15:51:04.984Z,97339.66
2023-01-17T15:53:41.510Z,97335.34
2023-01-17T15:56:32.467Z,97334.88
2023-01-17T15:59:31.078Z,97328.50
2023-01-17T16:01:59.302Z,97326.06
2023-01-17T16:04:35.963Z,97332.16
2023-01-17T16:07:20.948Z,97333.78
2023-01-17T16:09:49.179Z,97335.53
2023-01-17T16:12:16.385Z,97332.28
2023-01-17T16:14:59.505Z,97326.88
2023-01-17T16:17:31.705Z,97324.97
2023-01-17T16:19:59.568Z,97321.47
2023-01-17T16:22:27.169Z,97323.66
2023-01-17T16:24:58.875Z,97322.13
2023-01-17T16:27:26.010Z,97319.81
2023-01-17T16:29:54.600Z,97330.25
2023-01-17T16:32:23.492Z,97323.59
2023-01-17T16:34:51.041Z,97319.94
2023-01-17T16:37:18.197Z,97310.41
2023-01-17T16:39:46.277Z,97314.41
2023-01-17T16:42:13.404Z,97315.31
2023-01-17T16:44:40.615Z,97294.81
2023-01-17T16:47:07.773Z,97305.00
2023-01-17T16:49:34.894Z,97317.81
2023-01-17T16:52:02.189Z,97308.31
2023-01-17T16:54:29.480Z,97310.06
2023-01-17T16:56:56.645Z,97311.97
2023-01-17T16:59:23.898Z,97304.22
2023-01-17T17:01:52.945Z,97294.88
2023-01-17T17:04:20.280Z,97304.41
2023-01-17T17:06:47.476Z,97306.13
2023-01-17T17:09:14.712Z,97292.28
2023-01-17T17:11:42.596Z,97293.78
2023-01-17T17:14:09.794Z,97301.53
2023-01-17T17:16:37.033Z,97291.47
2023-01-17T17:19:07.564Z,97294.63
2023-01-17T17:21:37.518Z,97291.91
2023-01-17T17:24:05.558Z,97291.28
2023-01-17T17:26:36.879Z,97285.25
2023-01-17T17:29:14.913Z,97288.50
2023-01-17T17:31:43.652Z,97290.56
2023-01-17T17:34:14.490Z,97295.19
2023-01-17T17:36:42.314Z,97299.56
2023-01-17T17:39:17.340Z,97309.94
2023-01-17T17:41:48.126Z,97316.75
2023-01-17T17:44:16.138Z,97301.47
2023-01-17T17:46:43.428Z,97307.44
2023-01-17T17:49:10.703Z,97310.13
2023-01-17T17:51:40.240Z,97324.22
2023-01-17T17:54:12.348Z,97316.56
2023-01-17T17:56:40.621Z,97321.78
2023-01-17T17:59:09.787Z,97305.88
2023-01-17T18:01:40.954Z,97309.16
2023-01-17T18:04:09.382Z,97314.25
2023-01-17T18:06:38.492Z,97322.16
2023-01-17T18:09:08.396Z,97325.00
2023-01-17T18:11:39.532Z,97329.38
2023-01-17T18:14:12.873Z,97328.50
2023-01-17T18:16:43.951Z,97338.06
2023-01-17T18:19:19.654Z,97333.03
2023-01-17T18:21:48.554Z,97323.59
2023-01-17T18:24:19.750Z,97337.25
2023-01-17T18:26:55.922Z,97336.06
2023-01-17T18:29:26.016Z,97341.50
2023-01-17T18:31:55.048Z,97345.81
2023-01-17T18:34:29.044Z,97352.41
2023-01-17T18:36:57.792Z,97361.22
2023-01-17T18:39:29.154Z,97369.03
2023-01-17T18:41:56.616Z,97372.06
2023-01-17T18:44:24.014Z,97367.06
2023-01-17T18:46:54.481Z,97366.94
2023-01-17T18:49:22.030Z,97370.75
2023-01-17T18:51:51.055Z,97358.28
2023-01-17T18:54:20.493Z,97345.84
2023-01-17T18:56:48.244Z,97347.34
2023-01-17T18:59:18.440Z,97344.34
2023-01-17T19:01:46.511Z,97344.16
2023-01-17T19:04:17.323Z,97344.66
2023-01-17T19:06:47.905Z,97346.94
2023-01-17T19:09:17.003Z,97351.53
2023-01-17T19:11:45.394Z,97347.13
2023-01-17T19:14:14.428Z,97351.66
2023-01-17T19:16:42.953Z,97346.63
2023-01-17T19:19:15.079Z,97343.97
2023-01-17T19:21:43.232Z,97351.41
2023-01-17T19:24:13.021Z,97352.16
2023-01-17T19:26:41.581Z,97353.69
2023-01-17T19:29:08.841Z,97348.41
2023-01-17T19:31:42.467Z,97351.91
2023-01-17T19:34:10.824Z,97349.31
2023-01-17T19:36:39.154Z,97348.28
2023-01-17T19:39:11.885Z,97351.78
2023-01-17T19:41:45.287Z,97349.84
2023-01-17T19:44:15.049Z,97350.59
2023-01-17T19:46:44.622Z,97349.91
2023-01-17T19:49:11.854Z,97342.88
2023-01-17T19:51:39.736Z,97355.75
2023-01-17T19:54:08.216Z,97361.34
2023-01-17T19:56:35.621Z,97354.28
2023-01-17T19:59:02.839Z,97360.34
2023-01-17T20:01:33.883Z,97350.84
2023-01-17T20:04:03.255Z,97348.16
2023-01-17T20:06:35.657Z,97351.78
2023-01-17T20:09:05.980Z,97344.09
2023-01-17T20:11:34.523Z,97342.28
2023-01-17T20:14:02.398Z,97346.50
2023-01-17T20:16:32.220Z,97340.28
2023-01-17T20:19:02.254Z,97345.56
2023-01-17T20:21:31.289Z,97344.75
2023-01-17T20:24:03.008Z,97351.66
2023-01-17T20:26:34.928Z,97347.44
2023-01-17T20:29:11.285Z,97334.78
2023-01-17T20:31:40.994Z,97332.09
2023-01-17T20:34:11.664Z,97339.81
2023-01-17T20:36:41.660Z,97331.25
2023-01-17T20:39:11.401Z,97344.16
2023-01-17T20:41:42.368Z,97346.88
2023-01-17T20:44:15.425Z,97328.00
2023-01-17T20:46:43.765Z,97328.81
2023-01-17T20:49:18.754Z,97329.63
2023-01-17T20:51:47.326Z,97327.81
2023-01-17T20:54:18.503Z,97327.88
2023-01-17T20:56:47.779Z,97318.44
2023-01-17T20:59:21.545Z,97317.50
2023-01-17T21:01:49.831Z,97313.72
2023-01-17T21:04:23.784Z,97321.09
2023-01-17T21:06:52.821Z,97320.06
2023-01-17T21:09:21.313Z,97322.53
2023-01-17T21:11:49.176Z,97323.34
2023-01-17T21:14:16.453Z,97320.59
2023-01-17T21:16:44.656Z,97323.88
2023-01-17T21:19:14.997Z,97328.13
2023-01-17T21:21:42.332Z,97323.22
2023-01-17T21:24:09.610Z,97334.56
2023-01-17T21:26:38.870Z,97331.16
2023-01-17T21:29:07.010Z,97330.63
2023-01-17T21:31:35.554Z,97330.16
2023-01-17T21:34:08.028Z,97334.41
2023-01-17T21:36:41.042Z,97332.84
2023-01-17T21:39:16.074Z,97338.50
2023-01-17T21:41:47.898Z,97334.03
2023-01-17T21:44:21.808Z,97343.59
2023-01-17T21:46:54.178Z,97342.75
2023-01-17T21:49:23.418Z,97343.03
2023-01-17T21:51:53.527Z,97332.59
2023-01-17T21:54:44.051Z,97323.88
2023-01-17T21:57:33.173Z,97330.63
2023-01-17T22:00:00.460Z,97330.25
2023-01-17T22:02:27.796Z,97332.97
2023-01-17T22:04:56.153Z,97327.88
2023-01-17T22:07:26.899Z,97319.75
2023-01-17T22:09:54.524Z,97319.69
2023-01-17T22:12:21.662Z,97324.59
2023-01-17T22:14:48.805Z,97319.31
2023-01-17T22:17:15.933Z,97312.41
2023-01-17T22:19:43.137Z,97305.13
2023-01-17T22:22:10.330Z,97319.34
2023-01-17T22:24:37.667Z,97322.00
2023-01-17T22:27:04.966Z,97328.75
2023-01-17T22:29:33.950Z,97332.13
2023-01-17T22:32:01.150Z,97336.50
2023-01-17T22:34:28.282Z,97335.59
2023-01-17T22:36:55.491Z,97336.44
2023-01-17T22:39:22.824Z,97341.47
2023-01-17T22:41:49.969Z,97347.38
2023-01-17T22:44:17.192Z,97337.44
2023-01-17T22:46:44.425Z,97336.69
2023-01-17T22:49:13.947Z,97340.69
2023-01-17T22:51:41.682Z,97337.22
2023-01-17T22:54:09.110Z,97340.88
2023-01-17T22:56:36.491Z,97340.06
2023-01-17T22:59:03.909Z,97334.78
2023-01-17T23:01:32.881Z,97338.25
2023-01-17T23:04:04.371Z,97336.69
2023-01-17T23:06:38.707Z,97339.06
2023-01-17T23:09:14.599Z,97341.41
2023-01-17T23:11:55.045Z,97340.56
2023-01-17T23:14:25.600Z,97336.06
2023-01-17T23:17:17.732Z,97339.31
2023-01-17T23:19:54.783Z,97337.81
2023-01-17T23:22:29.005Z,97339.13
2023-01-17T23:25:13.431Z,97339.94
2023-01-17T23:28:03.804Z,97334.41
2023-01-17T23:30:42.884Z,97330.94
2023-01-17T23:33:16.596Z,97318.25
2023-01-17T23:35:46.317Z,97319.78
2023-01-17T23:38:26.419Z,97320.75
2023-01-17T23:41:19.471Z,97319.56
2023-01-17T23:43:56.598Z,97316.91
2023-01-17T23:46:26.491Z,97322.59
2023-01-17T23:48:54.973Z,97317.06
2023-01-17T23:51:22.489Z,97317.50
2023-01-17T23:53:52.087Z,97320.72
2023-01-17T23:56:24.588Z,97317.94
2023-01-17T23:58:51.812Z,97319.56
